• Join FlightAware (Why Join?)
  • Login
  • US Flag 
02:21PM EDT


 

Airport Tracker/Info


-or-


 

Live Flight TrackerFlight Track Log ✈ KFS724 ✈ 26-Apr-2013 ✈ KYIP - MMMY / MTY

Flight Track Log - Related Links

Times and Time Zones

All times are in EDT time to prevent confusion due to time zone crossing. See the KFS724 flight status page for this flight to view local times or setup timezone preferences in your user account.

Time Position Orientation Groundspeed Altitude Reporting Facility
EDT Latitude Longitude Course Direction KTS MPH feet Rate Location/Type
08:31AM 42.2217 -83.5497 220° Southwest 147 169 1,900  Level Cleveland Center
08:31AM 42.2003 -83.5739 220° Southwest 181 208 2,900 2,100 Climbing Cleveland Center
08:33AM 42.1275 -83.6389 214° Southwest 218 251 6,700 2,220 Climbing Chicago Center
08:33AM 42.0983 -83.6503 196° South 260 299 7,200 2,160 Climbing Cleveland Center
08:34AM 42.0119 -83.6797 194° South 266 306 9,500 1,560 Climbing Cleveland Center
08:35AM 41.9339 -83.7122 197° South 289 333 10,400 1,380 Climbing Cleveland Center
08:36AM 41.8369 -83.7522 197° South 329 379 12,300 2,400 Climbing Cleveland Center
08:37AM 41.7358 -83.7861 194° South 363 418 15,300 2,520 Climbing Cleveland Center
08:38AM 41.6328 -83.8172 193° South 374 430 17,400 1,740 Climbing Cleveland Center
08:39AM 41.5314 -83.8647 199° South 380 437 18,800 1,800 Climbing Cleveland Center
08:40AM 41.4436 -83.9433 214° Southwest 373 429 21,100 2,340 Climbing Cleveland Center
08:41AM 41.3639 -84.0333 220° Southwest 378 435 23,500 1,920 Climbing Cleveland Center
08:42AM 41.2844 -84.1067 215° Southwest 371 427 25,000 1,200 Climbing Cleveland Center
08:43AM 41.1983 -84.1931 217° Southwest 382 440 26,000 1,380 Climbing Cleveland Center
08:44AM 41.1414 -84.3047 236° Southwest 375 432 27,900 1,320 Climbing Chicago Center
08:45AM 41.1236 -84.4375 260° West 368 423 28,800 900 Climbing Chicago Center
08:46AM 41.1064 -84.5750 261° West 376 433 29,800 1,080 Climbing Chicago Center
08:47AM 41.0839 -84.7122 258° West 381 438 31,100 960 Climbing Chicago Center
08:48AM 41.0550 -84.8486 254° West 383 441 31,900 960 Climbing Chicago Center
08:49AM 41.0050 -85.0100 248° West 391 450 33,100 900 Climbing Chicago Center
08:50AM 40.9650 -85.1447 249° West 392 451 33,800 420 Climbing Chicago Center
08:52AM 40.8958 -85.2619 232° Southwest 418 481 34,000 60 Climbing Chicago Center
08:53AM 40.7919 -85.3539 214° Southwest 445 512 34,000  Level Chicago Center
08:54AM 40.6956 -85.4506 217° Southwest 437 503 34,000  Level Chicago Center
08:55AM 40.6067 -85.5586 223° Southwest 427 491 34,000  Level Chicago Center
08:56AM 40.5125 -85.6556 218° Southwest 427 491 34,000  Level Chicago Center
08:57AM 40.4028 -85.7678 218° Southwest 427 491 34,000  Level Chicago Center
08:58AM 40.3106 -85.8628 218° Southwest 421 484 34,000  Level Chicago Center
08:59AM 40.2181 -85.9567 218° Southwest 418 481 34,000  Level Chicago Center
09:00AM 40.1275 -86.0500 218° Southwest 415 478 34,000  Level Chicago Center
09:01AM 40.0375 -86.1414 218° Southwest 409 471 34,000  Level Chicago Center
09:02AM 39.9489 -86.2319 218° Southwest 405 466 34,000  Level Chicago Center
09:03AM 39.8606 -86.3208 218° Southwest 404 465 34,000  Level Chicago Center
09:04AM 39.7706 -86.4056 216° Southwest 406 467 34,000  Level Chicago Center
09:05AM 39.6506 -86.4864 207° Southwest 420 483 34,000  Level Chicago Center
09:06AM 39.5483 -86.5581 208° Southwest 418 481 34,000  Level Chicago Center
09:07AM 39.4439 -86.6322 209° Southwest 424 488 34,000  Level Chicago Center
09:08AM 39.3406 -86.7061 209° Southwest 423 487 34,000  Level Chicago Center
09:09AM 39.2211 -86.7953 210° Southwest 424 488 34,000  Level Indianapolis Center
09:10AM 39.1111 -86.8814 211° Southwest 422 486 34,000  Level Indianapolis Center
09:11AM 39.0119 -86.9617 212° Southwest 420 483 34,000  Level Indianapolis Center
09:12AM 38.9128 -87.0425 212° Southwest 422 486 34,000  Level Indianapolis Center
09:13AM 38.8144 -87.1231 213° Southwest 419 482 34,000  Level Indianapolis Center
09:14AM 38.7169 -87.2042 213° Southwest 417 480 34,000  Level Indianapolis Center
09:15AM 38.6194 -87.2831 212° Southwest 415 478 34,000  Level Indianapolis Center
09:16AM 38.5033 -87.3744 212° Southwest 412 474 34,000  Level Indianapolis Center
09:17AM 38.4053 -87.4461 210° Southwest 412 474 34,000  Level Indianapolis Center
09:18AM 38.3044 -87.5139 208° Southwest 412 474 34,000  Level Indianapolis Center
09:19AM 38.1975 -87.5703 203° Southwest 415 478 34,000  Level Indianapolis Center
09:20AM 38.0994 -87.6397 209° Southwest 404 465 34,000  Level Indianapolis Center
09:21AM 38.0022 -87.7103 210° Southwest 403 464 34,000  Level Indianapolis Center
09:23AM 37.8908 -87.7964 211° Southwest 389 448 34,000  Level Indianapolis Center
09:24AM 37.8128 -87.8883 223° Southwest 381 438 34,000  Level Indianapolis Center
09:25AM 37.7383 -87.9653 219° Southwest 377 434 34,000  Level Indianapolis Center
09:26AM 37.6439 -88.0675 221° Southwest 380 437 34,000  Level Indianapolis Center
09:27AM 37.5617 -88.1550 220° Southwest 384 442 34,000  Level Indianapolis Center
09:28AM 37.4789 -88.2425 220° Southwest 386 444 34,000  Level Indianapolis Center
09:29AM 37.3964 -88.3303 220° Southwest 385 443 34,000  Level Indianapolis Center
09:30AM 37.3117 -88.4181 220° Southwest 389 448 34,000  Level Indianapolis Center
09:31AM 37.2289 -88.5053 220° Southwest 388 447 34,000  Level Indianapolis Center
09:32AM 37.1403 -88.6056 222° Southwest 400 460 34,000  Level Memphis Center
09:33AM 37.0581 -88.6906 220° Southwest 400 460 34,000  Level Memphis Center
09:34AM 36.9758 -88.7756 220° Southwest 395 455 34,000  Level Memphis Center
09:35AM 36.8917 -88.8628 220° Southwest 401 461 34,000  Level Memphis Center
09:36AM 36.8072 -88.9497 220° Southwest 401 461 34,000  Level Memphis Center
09:37AM 36.7247 -89.0342 219° Southwest 401 461 34,000  Level Memphis Center
09:38AM 36.6403 -89.1208 219° Southwest 401 461 34,000  Level Memphis Center
09:39AM 36.5556 -89.2100 220° Southwest 401 461 34,000  Level Memphis Center
09:40AM 36.4667 -89.2989 219° Southwest 401 461 34,000  Level Memphis Center
09:41AM 36.3819 -89.3853 219° Southwest 406 467 34,100 480 Climbing Memphis Center
09:42AM 36.2786 -89.4894 219° Southwest 427 491 35,000 780 Climbing Memphis Center
09:43AM 36.1917 -89.5778 219° Southwest 422 486 35,700 480 Climbing Memphis Center
09:44AM 36.1025 -89.6686 219° Southwest 422 486 36,000 120 Climbing Memphis Center
09:45AM 36.0111 -89.7592 219° Southwest 427 491 36,000  Level Memphis Center
09:46AM 35.9178 -89.8519 219° Southwest 427 491 36,000  Level Memphis Center
09:47AM 35.8242 -89.9422 218° Southwest 432 497 36,000  Level Memphis Center
09:48AM 35.7308 -90.0347 219° Southwest 432 497 36,000  Level Memphis Center
09:49AM 35.6453 -90.1269 221° Southwest 423 487 36,000  Level Memphis Center
09:50AM 35.5517 -90.2192 219° Southwest 430 495 36,000  Level Memphis Center
09:51AM 35.4600 -90.3111 219° Southwest 430 495 36,000  Level Memphis Center
09:52AM 35.3683 -90.4028 219° Southwest 430 495 36,000  Level Memphis Center
09:53AM 35.2806 -90.4892 219° Southwest 423 487 36,000  Level Memphis Center
09:54AM 35.1908 -90.5756 218° Southwest 423 487 36,000  Level Memphis Center
09:55AM 35.1008 -90.6642 219° Southwest 418 481 36,000  Level Memphis Center
09:56AM 35.0131 -90.7500 219° Southwest 418 481 36,000  Level Memphis Center
09:57AM 34.9250 -90.8358 219° Southwest 413 475 36,000  Level Memphis Center
09:58AM 34.8475 -90.9114 219° Southwest 413 475 36,000  Level Memphis Center
09:59AM 34.7533 -90.9992 217° Southwest 413 475 36,000  Level Memphis Center
10:00AM 34.6672 -91.0869 220° Southwest 420 483 36,000  Level Memphis Center
10:01AM 34.5750 -91.1744 218° Southwest 420 483 36,000  Level Memphis Center
10:02AM 34.4825 -91.2617 218° Southwest 420 483 36,000  Level Memphis Center
10:03AM 34.3900 -91.3489 218° Southwest 425 489 36,000  Level Memphis Center
10:04AM 34.2994 -91.4358 218° Southwest 425 489 36,000  Level Memphis Center
10:05AM 34.1964 -91.5300 217° Southwest 425 489 36,000  Level Memphis Center
10:06AM 34.1058 -91.6164 218° Southwest 425 489 36,000  Level Memphis Center
10:07AM 34.0172 -91.7028 219° Southwest 419 482 36,000  Level Memphis Center
10:09AM 33.8283 -91.8856 219° Southwest 421 484 36,000  Level Fort Worth Center
10:10AM 33.7339 -91.9714 217° Southwest 427 491 36,000  Level Fort Worth Center
10:11AM 33.6417 -92.0569 218° Southwest 427 491 36,000  Level Fort Worth Center
10:12AM 33.5492 -92.1397 217° Southwest 427 491 36,000  Level Fort Worth Center
10:13AM 33.4608 -92.2222 218° Southwest 422 486 36,000  Level Fort Worth Center
10:14AM 33.3725 -92.3047 218° Southwest 417 480 36,000  Level Fort Worth Center
10:15AM 33.2800 -92.3894 217° Southwest 417 480 36,000  Level Fort Worth Center
10:16AM 33.1892 -92.4739 218° Southwest 417 480 36,000  Level Fort Worth Center
10:17AM 33.0986 -92.5533 216° Southwest 417 480 36,000  Level Fort Worth Center
10:18AM 33.0078 -92.6353 217° Southwest 422 486 36,000  Level Fort Worth Center
10:19AM 32.9192 -92.7192 218° Southwest 417 480 36,000  Level Fort Worth Center
10:20AM 32.8442 -92.7847 216° Southwest 417 480 36,000  Level Fort Worth Center
10:21AM 32.7453 -92.8739 217° Southwest 417 480 36,000  Level Fort Worth Center
10:22AM 32.6542 -92.9575 218° Southwest 417 480 36,000  Level Fort Worth Center
10:23AM 32.5653 -93.0383 217° Southwest 422 486 36,000  Level Fort Worth Center
10:24AM 32.4742 -93.1189 217° Southwest 417 480 36,000  Level Fort Worth Center
10:25AM 32.3850 -93.1969 216° Southwest 417 480 36,000  Level Fort Worth Center
10:26AM 32.2939 -93.2797 218° Southwest 412 474 36,000  Level Fort Worth Center
10:27AM 32.2044 -93.3600 217° Southwest 412 474 36,000  Level Fort Worth Center
10:28AM 32.1114 -93.4525 220° Southwest 412 474 36,000  Level Fort Worth Center
10:29AM 32.0200 -93.5347 217° Southwest 412 474 36,000  Level Fort Worth Center
10:31AM 31.8253 -93.7028 216° Southwest 413 475 36,000  Level Houston Center
10:32AM 31.7536 -93.7708 219° Southwest 421 484 36,000  Level Fort Worth Center
10:34AM 31.5392 -93.9519 216° Southwest 421 484 36,000  Level Houston Center
10:35AM 31.4450 -94.0356 217° Southwest 423 487 36,000  Level Houston Center
10:36AM 31.3306 -94.1350 217° Southwest 426 490 36,000  Level Houston Center
10:37AM 31.2347 -94.2175 216° Southwest 425 489 36,000  Level Houston Center
10:38AM 31.1397 -94.3017 217° Southwest 426 490 36,000  Level Houston Center
10:39AM 31.0433 -94.3847 216° Southwest 426 490 36,000  Level Houston Center
10:41AM 30.9472 -94.4692 217° Southwest 427 491 36,000  Level Houston Center
10:42AM 30.8500 -94.5522 216° Southwest 430 495 36,000  Level Houston Center
10:43AM 30.7542 -94.6353 217° Southwest 428 493 36,000  Level Houston Center
10:44AM 30.6575 -94.7175 216° Southwest 427 491 36,000  Level Houston Center
10:45AM 30.5431 -94.8161 217° Southwest 425 489 36,000  Level Houston Center
10:46AM 30.4481 -94.8986 217° Southwest 424 488 36,000  Level Houston Center
10:47AM 30.3647 -94.9700 216° Southwest 424 488 36,000  Level Houston Center
10:48AM 30.2514 -95.0664 216° Southwest 421 484 36,000  Level Houston Center
10:49AM 30.1575 -95.1464 216° Southwest 421 484 36,000  Level Houston Center
10:50AM 30.0633 -95.2267 216° Southwest 423 487 36,000  Level Houston Center
10:51AM 29.9689 -95.3058 216° Southwest 423 487 36,000  Level Houston Center
10:52AM 29.8761 -95.3853 217° Southwest 421 484 36,000  Level Houston Center
10:53AM 29.7633 -95.4797 216° Southwest 422 486 36,000  Level Houston Center
10:54AM 29.6700 -95.5564 216° Southwest 419 482 36,000  Level Houston Center
10:55AM 29.5733 -95.6364 216° Southwest 427 491 36,000  Level Houston Center
10:56AM 29.4783 -95.7144 216° Southwest 424 488 36,000  Level Houston Center
10:57AM 29.3844 -95.7931 216° Southwest 420 483 36,000  Level Houston Center
10:58AM 29.2708 -95.8875 216° Southwest 420 483 36,000  Level Houston Center
10:59AM 29.1761 -95.9661 216° Southwest 422 486 36,000 -60 Level Houston Center
11:00AM 29.0800 -96.0447 216° Southwest 423 487 35,900 -60 Descending Houston Center
11:01AM 28.9842 -96.1239 216° Southwest 423 487 35,900  Level Houston Center
11:02AM 28.8889 -96.2019 216° Southwest 422 486 35,900  Level Houston Center
11:03AM 28.7939 -96.2819 216° Southwest 423 487 35,900  Level Houston Center
11:04AM 28.7219 -96.4136 238° Southwest 411 473 35,900  Level Houston Center
11:05AM 28.6711 -96.5283 243° Southwest 407 468 35,900  Level Houston Center
11:06AM 28.6344 -96.6497 251° West 405 466 35,900  Level Houston Center
11:07AM 28.6039 -96.7722 254° West 403 464 35,900  Level Houston Center
11:08AM 28.5694 -96.8942 252° West 404 465 35,900  Level Houston Center
11:10AM 28.5047 -97.0000 235° Southwest 412 474 35,900  Level Houston Center
11:11AM 28.4442 -97.1392 244° Southwest 406 467 35,900  Level Houston Center
11:12AM 28.3964 -97.2556 245° Southwest 407 468 35,900  Level Houston Center
11:13AM 28.3497 -97.3728 246° West 407 468 35,900  Level Houston Center
11:14AM 28.3019 -97.4911 245° Southwest 411 473 35,900  Level Houston Center
11:15AM 28.2542 -97.6083 245° Southwest 410 472 35,900  Level Houston Center
11:16AM 28.2053 -97.7247 245° Southwest 411 473 35,900  Level Houston Center
11:17AM 28.1547 -97.8453 245° Southwest 410 472 35,900  Level Houston Center
11:18AM 28.0989 -97.9864 246° West 410 472 35,900  Level Houston Center
11:19AM 28.0508 -98.1011 245° Southwest 406 467 35,900  Level Houston Center
11:20AM 28.0031 -98.2167 245° Southwest 406 467 35,900  Level Houston Center
11:21AM 27.9556 -98.3322 245° Southwest 407 468 35,900  Level Houston Center
11:22AM 27.9075 -98.4469 245° Southwest 405 466 35,900  Level Houston Center
11:23AM 27.8589 -98.5628 245° Southwest 408 470 35,900  Level Houston Center
11:24AM 27.8028 -98.7011 245° Southwest 407 468 35,900  Level Houston Center
11:25AM 27.7544 -98.8164 245° Southwest 408 470 35,900  Level Houston Center
11:26AM 27.7069 -98.9308 245° Southwest 408 470 35,900  Level Houston Center
11:27AM 27.6597 -99.0450 245° Southwest 409 471 35,900  Level Houston Center
11:28AM 27.6017 -99.1814 244° Southwest 410 472 35,900  Level Houston Center
11:29AM 27.5531 -99.2950 244° Southwest 408 470 35,900  Level Houston Center
11:30AM 27.5053 -99.4094 245° Southwest 405 466 35,900  Level Houston Center
11:32AM 27.4263 -99.5379 249° West  Level FlightAware Approximate
11:39AM 26.7054 -99.7928 197° South  Level FlightAware Approximate
11:40AM 26.6004 -99.8277 197° South  Level FlightAware Approximate
11:41AM 26.4952 -99.8615 195° South  Level FlightAware Approximate
11:42AM 26.3894 -99.8932 195° South  Level FlightAware Approximate
11:43AM 26.2838 -99.9255 195° South  Level FlightAware Approximate
11:44AM 26.1782 -99.9580 195° South  Level FlightAware Approximate
11:45AM 26.0732 -99.9923 197° South  Level FlightAware Approximate
11:46AM 25.9698 -100.0318 204° Southwest  Level FlightAware Approximate
11:47AM 25.8636 -100.0606 190° South  Level FlightAware Approximate
11:48AM 25.7785 -100.1069 North  Level Estimated
11:49AM 25.7785 -100.1069 North  Level Estimated
11:50AM 25.7785 -100.1069 North  Level Estimated
11:51AM 25.7785 -100.1069 North  Level Estimated
11:52AM 25.7785 -100.1069 North  Level Estimated
11:53AM 25.7785 -100.1069 North  Level Estimated
11:54AM 25.7785 -100.1069 North  Level Estimated
11:55AM 25.7785 -100.1069 North  Level Estimated
11:56AM 25.7785 -100.1069 North  Level Estimated
11:57AM 25.7785 -100.1069 North  Level Estimated
11:58AM 25.7785 -100.1069 North  Level Estimated
11:59AM 25.7785 -100.1069 North  Level Estimated
12:00PM 25.7785 -100.1069 North  Level Estimated
12:01PM 25.7785 -100.1069 North  Level Estimated
12:02PM 25.7785 -100.1069 North  Level Estimated
12:03PM 25.7785 -100.1069 North  Level Estimated
12:04PM 25.7785 -100.1069 North  Level Estimated
12:05PM 25.7785 -100.1069 North  Level Estimated
12:06PM 25.7785 -100.1069 North  Level Estimated
12:07PM 25.7785 -100.1069 North  Level Estimated
12:08PM 25.7785 -100.1069 North  Level Estimated